createdAt,value
2019-02-20T00:01:56.086Z,7.21
2019-02-20T00:04:27.635Z,7.13
2019-02-20T00:06:58.906Z,7.14
2019-02-20T00:09:30.333Z,7.07
2019-02-20T00:12:02.084Z,7.07
2019-02-20T00:14:33.363Z,6.97
2019-02-20T00:17:04.618Z,6.97
2019-02-20T00:19:38.758Z,6.87
2019-02-20T00:22:09.877Z,7.03
2019-02-20T00:24:41.131Z,7.06
2019-02-20T00:27:12.379Z,6.95
2019-02-20T00:29:44.432Z,6.99
2019-02-20T00:32:15.454Z,6.80
2019-02-20T00:34:46.539Z,6.90
2019-02-20T00:37:17.750Z,6.96
2019-02-20T00:39:48.944Z,7.02
2019-02-20T00:42:23.411Z,6.94
2019-02-20T00:45:12.402Z,6.95
2019-02-20T00:47:59.291Z,6.97
2019-02-20T00:50:31.878Z,6.95
2019-02-20T00:53:20.465Z,6.92
2019-02-20T00:55:54.450Z,6.89
2019-02-20T00:58:29.905Z,6.71
2019-02-20T01:01:00.996Z,6.71
2019-02-20T01:03:32.190Z,6.79
2019-02-20T01:06:05.027Z,6.76
2019-02-20T01:08:36.366Z,6.80
2019-02-20T01:11:07.428Z,6.86
2019-02-20T01:13:38.521Z,6.83
2019-02-20T01:16:09.676Z,6.68
2019-02-20T01:18:40.709Z,6.75
2019-02-20T01:21:11.767Z,6.69
2019-02-20T01:23:42.904Z,6.73
2019-02-20T01:26:13.968Z,6.77
2019-02-20T01:28:44.994Z,6.79
2019-02-20T01:31:16.137Z,6.77
2019-02-20T01:33:47.308Z,6.78
2019-02-20T01:36:18.390Z,6.74
2019-02-20T01:38:49.561Z,6.78
2019-02-20T01:41:20.643Z,6.81
2019-02-20T01:43:51.799Z,6.79
2019-02-20T01:46:22.901Z,6.76
2019-02-20T01:48:54.089Z,6.79
2019-02-20T01:51:25.250Z,6.71
2019-02-20T01:53:57.437Z,6.73
2019-02-20T01:56:28.600Z,6.78
2019-02-20T01:59:02.145Z,6.72
2019-02-20T02:01:32.383Z,6.74
2019-02-20T02:04:03.731Z,6.70
2019-02-20T02:06:34.904Z,6.72
2019-02-20T02:09:08.460Z,6.74
2019-02-20T02:11:41.211Z,6.68
2019-02-20T02:14:12.447Z,6.72
2019-02-20T02:16:43.720Z,6.73
2019-02-20T02:19:14.835Z,6.74
2019-02-20T02:21:46.028Z,6.65
2019-02-20T02:24:17.600Z,6.65
2019-02-20T02:26:48.804Z,6.53
2019-02-20T02:29:19.987Z,6.52
2019-02-20T02:31:51.061Z,6.46
2019-02-20T02:34:22.186Z,6.43
2019-02-20T02:36:56.069Z,6.21
2019-02-20T02:39:27.496Z,6.35
2019-02-20T02:41:58.553Z,6.50
2019-02-20T02:44:30.139Z,6.58
2019-02-20T02:47:01.413Z,6.59
2019-02-20T02:49:34.408Z,6.46
2019-02-20T02:52:05.862Z,6.43
2019-02-20T02:54:36.878Z,6.54
2019-02-20T02:57:07.919Z,6.44
2019-02-20T02:59:39.531Z,6.28
2019-02-20T03:02:10.879Z,6.30
2019-02-20T03:04:42.094Z,6.44
2019-02-20T03:07:14.433Z,6.43
2019-02-20T03:09:45.520Z,6.53
2019-02-20T03:12:18.021Z,6.53
2019-02-20T03:14:50.586Z,6.57
2019-02-20T03:17:21.656Z,6.56
2019-02-20T03:19:52.659Z,6.55
2019-02-20T03:22:23.833Z,6.51
2019-02-20T03:24:54.933Z,6.51
2019-02-20T03:27:26.060Z,6.51
2019-02-20T03:29:57.077Z,6.51
2019-02-20T03:32:28.189Z,6.50
2019-02-20T03:34:59.391Z,6.49
2019-02-20T03:37:30.400Z,6.48
2019-02-20T03:40:01.508Z,6.49
2019-02-20T03:42:32.576Z,6.31
2019-02-20T03:45:03.782Z,6.43
2019-02-20T03:47:35.808Z,6.31
2019-02-20T03:50:07.008Z,6.45
2019-02-20T03:52:38.167Z,6.43
2019-02-20T03:55:09.443Z,6.34
2019-02-20T03:57:40.524Z,6.18
2019-02-20T04:00:12.928Z,6.11
2019-02-20T04:02:44.176Z,6.22
2019-02-20T04:05:15.266Z,6.14
2019-02-20T04:07:46.306Z,6.22
2019-02-20T04:10:17.343Z,6.30
2019-02-20T04:12:48.712Z,6.43
2019-02-20T04:15:20.157Z,6.30
2019-02-20T04:17:51.293Z,6.27
2019-02-20T04:20:22.326Z,6.23
2019-02-20T04:22:53.396Z,6.25
2019-02-20T04:25:24.402Z,6.07
2019-02-20T04:27:55.542Z,5.86
2019-02-20T04:30:26.616Z,5.88
2019-02-20T04:32:58.442Z,6.09
2019-02-20T04:35:29.678Z,6.24
2019-02-20T04:38:00.711Z,6.03
2019-02-20T04:40:31.893Z,5.90
2019-02-20T04:43:02.967Z,5.72
2019-02-20T04:45:33.987Z,5.79
2019-02-20T04:48:05.150Z,5.88
2019-02-20T04:50:36.231Z,6.05
2019-02-20T04:53:07.308Z,6.06
2019-02-20T04:55:38.425Z,5.99
2019-02-20T04:58:27.742Z,6.13
2019-02-20T05:00:58.824Z,6.07
2019-02-20T05:03:29.926Z,6.03
2019-02-20T05:06:00.955Z,5.83
2019-02-20T05:08:32.164Z,5.80
2019-02-20T05:11:03.395Z,5.87
2019-02-20T05:13:34.441Z,5.93
2019-02-20T05:16:05.565Z,6.02
2019-02-20T05:18:36.644Z,6.04
2019-02-20T05:21:07.693Z,5.98
2019-02-20T05:23:38.733Z,6.08
2019-02-20T05:26:09.806Z,6.00
2019-02-20T05:28:40.815Z,5.79
2019-02-20T05:31:11.837Z,5.98
2019-02-20T05:33:44.975Z,6.11
2019-02-20T05:36:16.148Z,5.88
2019-02-20T05:38:47.496Z,5.88
2019-02-20T05:41:18.656Z,6.04
2019-02-20T05:43:51.007Z,6.10
2019-02-20T05:46:22.088Z,5.91
2019-02-20T05:48:53.174Z,5.93
2019-02-20T05:51:25.906Z,5.95
2019-02-20T05:53:57.006Z,5.95
2019-02-20T05:56:28.114Z,5.72
2019-02-20T05:58:59.372Z,5.87
2019-02-20T06:01:30.545Z,5.82
2019-02-20T06:04:01.672Z,5.81
2019-02-20T06:06:32.664Z,5.85
2019-02-20T06:09:05.432Z,5.64
2019-02-20T06:11:37.357Z,5.68
2019-02-20T06:14:08.402Z,5.76
2019-02-20T06:16:39.498Z,5.68
2019-02-20T06:19:10.542Z,5.69
2019-02-20T06:21:41.666Z,5.66
2019-02-20T06:24:12.666Z,5.83
2019-02-20T06:26:45.169Z,5.97
2019-02-20T06:29:16.242Z,5.99
2019-02-20T06:31:47.267Z,5.98
2019-02-20T06:34:18.424Z,5.91
2019-02-20T06:36:50.806Z,5.81
2019-02-20T06:39:21.873Z,5.67
2019-02-20T06:41:52.928Z,5.75
2019-02-20T06:44:23.895Z,5.93
2019-02-20T06:46:54.921Z,6.06
2019-02-20T06:49:25.991Z,5.97
2019-02-20T06:51:57.009Z,5.93
2019-02-20T06:54:29.098Z,5.96
2019-02-20T06:57:00.180Z,5.98
2019-02-20T06:59:31.717Z,6.13
2019-02-20T07:02:02.838Z,6.04
2019-02-20T07:04:33.972Z,6.05
2019-02-20T07:07:26.838Z,6.02
2019-02-20T07:10:48.519Z,6.09
2019-02-20T07:13:56.503Z,6.14
2019-02-20T07:17:04.625Z,6.04
2019-02-20T07:20:00.280Z,6.12
2019-02-20T07:23:19.269Z,6.17
2019-02-20T07:26:16.936Z,6.37
2019-02-20T07:29:26.346Z,6.54
2019-02-20T07:31:57.368Z,6.39
2019-02-20T07:34:28.429Z,6.31
2019-02-20T07:36:59.445Z,6.53
2019-02-20T07:39:30.485Z,6.40
2019-02-20T07:42:01.619Z,6.48
2019-02-20T07:44:32.788Z,6.58
2019-02-20T07:47:03.964Z,6.46
2019-02-20T07:49:35.174Z,6.44
2019-02-20T07:52:06.314Z,6.46
2019-02-20T07:54:37.336Z,6.67
2019-02-20T07:57:08.395Z,6.83
2019-02-20T07:59:39.560Z,6.57
2019-02-20T08:02:10.601Z,6.61
2019-02-20T08:04:41.723Z,6.45
2019-02-20T08:07:12.896Z,6.45
2019-02-20T08:09:44.011Z,6.58
2019-02-20T08:12:15.014Z,6.68
2019-02-20T08:14:46.056Z,6.72
2019-02-20T08:17:17.164Z,6.60
2019-02-20T08:19:48.275Z,6.62
2019-02-20T08:22:19.376Z,6.59
2019-02-20T08:24:50.537Z,6.67
2019-02-20T08:27:21.605Z,6.89
2019-02-20T08:29:52.685Z,7.12
2019-02-20T08:32:23.784Z,7.19
2019-02-20T08:34:54.964Z,7.14
2019-02-20T08:37:26.068Z,7.35
2019-02-20T08:39:57.182Z,7.60
2019-02-20T08:42:28.244Z,7.64
2019-02-20T08:44:59.353Z,7.68
2019-02-20T08:47:30.442Z,7.70
2019-02-20T08:50:01.527Z,7.79
2019-02-20T08:52:33.765Z,7.98
2019-02-20T08:55:05.853Z,7.97
2019-02-20T08:57:36.920Z,7.94
2019-02-20T09:00:10.734Z,7.66
2019-02-20T09:02:42.172Z,7.64
2019-02-20T09:05:13.349Z,7.35
2019-02-20T09:07:44.456Z,7.65
2019-02-20T09:10:17.417Z,7.78
2019-02-20T09:12:48.429Z,7.74
2019-02-20T09:15:19.598Z,7.86
2019-02-20T09:17:50.706Z,8.14
2019-02-20T09:20:22.009Z,8.08
2019-02-20T09:22:53.428Z,8.17
2019-02-20T09:25:24.872Z,8.07
2019-02-20T09:27:55.874Z,8.02
2019-02-20T09:30:28.885Z,8.01
2019-02-20T09:32:59.647Z,8.08
2019-02-20T09:35:30.666Z,8.35
2019-02-20T09:38:01.746Z,8.60
2019-02-20T09:40:32.843Z,8.35
2019-02-20T09:43:04.013Z,8.71
2019-02-20T09:45:41.650Z,8.87
2019-02-20T09:48:08.062Z,8.77
2019-02-20T09:50:39.182Z,8.93
2019-02-20T09:53:10.205Z,8.84
2019-02-20T09:55:50.882Z,8.87
2019-02-20T09:58:14.226Z,8.65
2019-02-20T10:00:45.361Z,8.87
2019-02-20T10:03:16.420Z,8.99
2019-02-20T10:05:47.573Z,8.94
2019-02-20T10:08:18.720Z,9.04
2019-02-20T10:10:49.776Z,9.10
2019-02-20T10:13:20.832Z,9.40
2019-02-20T10:15:51.934Z,9.45
2019-02-20T10:18:22.984Z,9.70
2019-02-20T10:20:54.286Z,9.48
2019-02-20T10:23:25.388Z,8.68
2019-02-20T10:26:00.907Z,8.93
2019-02-20T10:28:29.325Z,9.46
2019-02-20T10:31:00.352Z,9.76
2019-02-20T10:33:31.522Z,9.93
2019-02-20T10:36:02.632Z,9.97
2019-02-20T10:38:33.705Z,9.76
2019-02-20T10:41:04.879Z,10.10
2019-02-20T10:43:37.115Z,10.12
2019-02-20T10:46:08.309Z,9.97
2019-02-20T10:48:39.494Z,10.15
2019-02-20T10:51:10.516Z,9.98
2019-02-20T10:53:42.672Z,9.81
2019-02-20T10:56:13.807Z,9.64
2019-02-20T10:58:44.827Z,9.53
2019-02-20T11:01:15.930Z,10.66
2019-02-20T11:03:46.946Z,10.70
2019-02-20T11:06:18.025Z,10.44
2019-02-20T11:08:50.441Z,10.28
2019-02-20T11:11:21.692Z,9.91
2019-02-20T11:13:52.868Z,10.18
2019-02-20T11:16:24.012Z,11.40
2019-02-20T11:18:55.132Z,11.32
2019-02-20T11:21:26.328Z,10.30
2019-02-20T11:23:57.449Z,10.28
2019-02-20T11:26:28.480Z,10.56
2019-02-20T11:29:01.981Z,10.45
2019-02-20T11:31:33.165Z,10.31
2019-02-20T11:34:04.643Z,9.12
2019-02-20T11:36:35.680Z,9.02
2019-02-20T11:39:07.330Z,9.20
2019-02-20T11:41:38.594Z,9.26
2019-02-20T11:44:09.735Z,9.34
2019-02-20T11:46:40.857Z,9.36
2019-02-20T11:49:11.879Z,9.28
2019-02-20T11:51:42.922Z,9.07
2019-02-20T11:54:13.950Z,9.35
2019-02-20T11:56:45.090Z,9.37
2019-02-20T11:59:16.212Z,9.20
2019-02-20T12:01:47.373Z,9.49
2019-02-20T12:04:18.435Z,9.49
2019-02-20T12:06:50.590Z,9.68
2019-02-20T12:09:21.669Z,9.78
2019-02-20T12:11:54.026Z,9.78
2019-02-20T12:14:25.220Z,9.73
2019-02-20T12:16:57.548Z,9.75
2019-02-20T12:19:28.620Z,9.71
2019-02-20T12:21:59.691Z,9.73
2019-02-20T12:24:30.890Z,9.82
2019-02-20T12:27:02.295Z,9.68
2019-02-20T12:29:33.369Z,9.52
2019-02-20T12:32:04.604Z,9.63
2019-02-20T12:34:35.902Z,9.75
2019-02-20T12:37:07.786Z,9.63
2019-02-20T12:39:43.123Z,9.67
2019-02-20T12:42:14.231Z,9.70
2019-02-20T12:44:45.234Z,9.73
2019-02-20T12:47:16.404Z,9.68
2019-02-20T12:49:47.487Z,9.78
2019-02-20T12:52:18.586Z,9.61
2019-02-20T12:54:49.613Z,9.79
2019-02-20T12:57:22.175Z,10.16
2019-02-20T12:59:53.365Z,10.24
2019-02-20T13:02:24.465Z,10.45
2019-02-20T13:04:55.638Z,10.87
2019-02-20T13:07:26.869Z,11.79
2019-02-20T13:09:57.946Z,13.45
2019-02-20T13:12:30.480Z,13.94
2019-02-20T13:15:02.677Z,14.18
2019-02-20T13:17:33.976Z,14.47
2019-02-20T13:20:05.245Z,13.65
2019-02-20T13:22:36.467Z,13.48
2019-02-20T13:25:07.874Z,12.46
2019-02-20T13:27:40.270Z,13.12
2019-02-20T13:30:11.787Z,13.71
2019-02-20T13:32:42.993Z,13.14
2019-02-20T13:35:14.777Z,12.52
2019-02-20T13:37:46.063Z,13.29
2019-02-20T13:40:17.165Z,13.49
2019-02-20T13:42:48.273Z,13.53
2019-02-20T13:45:19.397Z,14.04
2019-02-20T13:47:50.803Z,14.72
2019-02-20T13:50:21.978Z,13.88
2019-02-20T13:52:53.191Z,13.89
2019-02-20T13:55:24.394Z,13.97
2019-02-20T13:57:55.589Z,14.49
2019-02-20T14:00:26.736Z,15.38
2019-02-20T14:02:57.789Z,14.65
2019-02-20T14:05:28.915Z,14.13
2019-02-20T14:07:59.962Z,13.67
2019-02-20T14:10:31.034Z,13.26
2019-02-20T14:13:02.095Z,14.48
2019-02-20T14:15:33.189Z,15.92
2019-02-20T14:18:04.781Z,15.91
2019-02-20T14:20:36.043Z,14.98
2019-02-20T14:23:07.339Z,14.03
2019-02-20T14:25:38.506Z,14.11
2019-02-20T14:28:09.727Z,13.77
2019-02-20T14:30:40.930Z,13.51
2019-02-20T14:33:12.066Z,12.03
2019-02-20T14:35:43.103Z,12.71
2019-02-20T14:38:14.317Z,12.77
2019-02-20T14:40:45.494Z,13.25
2019-02-20T14:43:16.611Z,12.83
2019-02-20T14:45:47.828Z,13.50
2019-02-20T14:48:19.080Z,15.03
2019-02-20T14:50:50.192Z,15.84
2019-02-20T14:53:21.241Z,15.40
2019-02-20T14:55:52.317Z,14.05
2019-02-20T14:58:23.854Z,13.58
2019-02-20T15:00:54.959Z,14.84
2019-02-20T15:03:26.163Z,14.04
2019-02-20T15:05:57.179Z,14.28
2019-02-20T15:08:28.384Z,14.21
2019-02-20T15:10:59.377Z,13.76
2019-02-20T15:13:30.658Z,13.25
2019-02-20T15:16:01.744Z,12.77
2019-02-20T15:18:32.785Z,12.57
2019-02-20T15:21:03.911Z,12.46
2019-02-20T15:23:34.977Z,12.07
2019-02-20T15:26:06.457Z,12.20
2019-02-20T15:28:37.522Z,12.11
2019-02-20T15:31:08.622Z,12.02
2019-02-20T15:33:41.232Z,12.22
2019-02-20T15:36:12.388Z,11.81
2019-02-20T15:38:43.792Z,11.84
2019-02-20T15:41:14.947Z,12.03
2019-02-20T15:43:46.336Z,11.95
2019-02-20T15:46:17.368Z,11.88
2019-02-20T15:48:48.487Z,11.95
2019-02-20T15:51:19.650Z,11.93
2019-02-20T15:53:50.852Z,11.44
2019-02-20T15:56:22.000Z,11.39
2019-02-20T15:58:53.256Z,11.26
2019-02-20T16:01:24.465Z,10.77
2019-02-20T16:03:55.638Z,10.84
2019-02-20T16:06:27.083Z,10.77
2019-02-20T16:08:58.199Z,10.59
2019-02-20T16:11:29.229Z,10.38
2019-02-20T16:14:00.284Z,10.27
2019-02-20T16:16:31.459Z,10.24
2019-02-20T16:19:02.623Z,10.21
2019-02-20T16:21:33.821Z,10.04
2019-02-20T16:24:04.983Z,9.98
2019-02-20T16:26:36.263Z,10.00
2019-02-20T16:29:07.296Z,9.82
2019-02-20T16:31:38.386Z,9.80
2019-02-20T16:34:09.807Z,9.65
2019-02-20T16:36:40.908Z,9.70
2019-02-20T16:39:12.468Z,9.66
2019-02-20T16:41:43.637Z,9.63
2019-02-20T16:44:14.769Z,9.53
2019-02-20T16:46:48.308Z,9.38
2019-02-20T16:49:19.320Z,9.30
2019-02-20T16:51:51.519Z,9.13
2019-02-20T16:54:22.609Z,9.19
2019-02-20T16:56:53.680Z,9.26
2019-02-20T16:59:25.797Z,9.21
2019-02-20T17:01:56.991Z,9.01
2019-02-20T17:04:28.191Z,8.92
2019-02-20T17:06:59.269Z,8.97
2019-02-20T17:09:30.378Z,8.98
2019-02-20T17:12:01.840Z,8.95
2019-02-20T17:14:33.016Z,8.95
2019-02-20T17:17:04.189Z,8.92
2019-02-20T17:19:35.221Z,8.78
2019-02-20T17:22:06.466Z,8.66
2019-02-20T17:24:37.658Z,8.47
2019-02-20T17:27:09.084Z,8.46
2019-02-20T17:29:40.207Z,8.43
2019-02-20T17:32:11.294Z,8.34
2019-02-20T17:34:42.376Z,8.33
2019-02-20T17:37:13.466Z,8.25
2019-02-20T17:39:45.055Z,8.24
2019-02-20T17:42:16.138Z,8.29
2019-02-20T17:44:47.182Z,8.45
2019-02-20T17:47:18.367Z,8.45
2019-02-20T17:49:49.512Z,8.40
2019-02-20T17:52:21.257Z,8.22
2019-02-20T17:54:52.284Z,8.18
2019-02-20T17:57:23.394Z,7.94
2019-02-20T17:59:54.588Z,7.82
2019-02-20T18:02:25.746Z,7.85
2019-02-20T18:04:56.842Z,7.89
2019-02-20T18:07:27.963Z,7.95
2019-02-20T18:09:59.036Z,8.01
2019-02-20T18:12:30.052Z,8.10
2019-02-20T18:15:02.588Z,8.15
2019-02-20T18:17:33.824Z,8.09
2019-02-20T18:20:05.266Z,8.08
2019-02-20T18:22:36.363Z,7.99
2019-02-20T18:25:09.737Z,7.81
2019-02-20T18:27:40.343Z,7.75
2019-02-20T18:30:12.016Z,7.88
2019-02-20T18:32:44.350Z,7.83
2019-02-20T18:35:16.344Z,7.79
2019-02-20T18:37:47.504Z,7.77
2019-02-20T18:40:19.660Z,7.89
2019-02-20T18:42:50.764Z,7.90
2019-02-20T18:45:22.464Z,7.80
2019-02-20T18:47:53.502Z,7.83
2019-02-20T18:50:24.710Z,7.72
2019-02-20T18:52:55.908Z,7.38
2019-02-20T18:55:26.921Z,7.48
2019-02-20T18:57:59.808Z,7.41
2019-02-20T19:00:32.284Z,7.42
2019-02-20T19:03:03.523Z,7.38
2019-02-20T19:05:34.761Z,7.37
2019-02-20T19:08:32.199Z,7.33
2019-02-20T19:11:06.721Z,7.34
2019-02-20T19:14:16.986Z,7.30
2019-02-20T19:17:43.683Z,7.34
2019-02-20T19:20:58.797Z,7.43
2019-02-20T19:24:13.613Z,7.46
2019-02-20T19:27:07.454Z,7.38
2019-02-20T19:30:33.151Z,7.33
2019-02-20T19:33:15.690Z,7.43
2019-02-20T19:36:29.650Z,7.45
2019-02-20T19:39:21.179Z,7.28
2019-02-20T19:42:33.645Z,7.15
2019-02-20T19:45:38.939Z,7.09
2019-02-20T19:49:12.332Z,6.93
2019-02-20T19:52:01.595Z,7.05
2019-02-20T19:55:15.118Z,7.11
2019-02-20T19:58:00.186Z,6.97
2019-02-20T20:01:20.594Z,6.51
2019-02-20T20:04:16.430Z,6.33
2019-02-20T20:07:19.666Z,6.33
2019-02-20T20:10:05.484Z,6.39
2019-02-20T20:13:17.626Z,6.44
2019-02-20T20:16:20.337Z,6.24
2019-02-20T20:19:29.871Z,6.13
2019-02-20T20:22:32.925Z,6.17
2019-02-20T20:25:19.848Z,6.16
2019-02-20T20:28:24.261Z,5.93
2019-02-20T20:31:32.739Z,5.97
2019-02-20T20:34:31.844Z,5.95
2019-02-20T20:37:30.187Z,6.06
2019-02-20T20:40:44.175Z,6.13
2019-02-20T20:43:45.157Z,5.96
2019-02-20T20:46:50.038Z,6.03
2019-02-20T20:50:04.914Z,5.69
2019-02-20T20:53:03.436Z,5.83
2019-02-20T20:56:09.623Z,5.83
2019-02-20T20:59:03.006Z,5.76
2019-02-20T21:02:17.261Z,5.57
2019-02-20T21:05:37.314Z,5.46
2019-02-20T21:08:29.022Z,5.39
2019-02-20T21:11:55.211Z,5.41
2019-02-20T21:14:42.273Z,5.31
2019-02-20T21:17:57.407Z,5.26
2019-02-20T21:20:54.425Z,5.10
2019-02-20T21:24:01.978Z,5.14
2019-02-20T21:27:01.815Z,4.93
2019-02-20T21:29:53.429Z,5.13
2019-02-20T21:32:42.764Z,5.33
2019-02-20T21:35:24.696Z,5.21
2019-02-20T21:38:16.152Z,5.32
2019-02-20T21:41:34.146Z,5.08
2019-02-20T21:44:20.764Z,5.10
2019-02-20T21:47:45.473Z,5.22
2019-02-20T21:50:56.560Z,5.18
2019-02-20T21:53:59.256Z,5.22
2019-02-20T21:56:54.169Z,5.01
2019-02-20T21:59:41.645Z,5.47
2019-02-20T22:02:42.304Z,5.45
2019-02-20T22:06:00.722Z,5.50
2019-02-20T22:08:48.578Z,5.49
2019-02-20T22:11:38.541Z,5.42
2019-02-20T22:14:34.820Z,5.46
2019-02-20T22:18:02.087Z,5.30
2019-02-20T22:20:53.680Z,5.36
2019-02-20T22:23:50.441Z,5.28
2019-02-20T22:26:30.369Z,5.25
2019-02-20T22:29:18.709Z,5.20
2019-02-20T22:32:20.043Z,5.34
2019-02-20T22:35:22.542Z,5.30
2019-02-20T22:38:29.383Z,5.47
2019-02-20T22:41:29.132Z,5.58
2019-02-20T22:44:36.558Z,5.66
2019-02-20T22:47:30.431Z,5.35
2019-02-20T22:50:41.168Z,5.36
2019-02-20T22:53:52.191Z,5.41
2019-02-20T22:56:42.760Z,5.30
2019-02-20T23:00:10.723Z,5.38
2019-02-20T23:03:20.487Z,5.36
2019-02-20T23:06:12.816Z,5.42
2019-02-20T23:09:14.265Z,5.47
2019-02-20T23:12:07.090Z,5.34
2019-02-20T23:14:56.501Z,5.28
2019-02-20T23:17:27.841Z,5.35
2019-02-20T23:19:59.211Z,5.43
2019-02-20T23:22:30.360Z,5.26
2019-02-20T23:25:01.525Z,5.17
2019-02-20T23:27:32.622Z,5.38
2019-02-20T23:30:12.512Z,5.55
2019-02-20T23:32:37.023Z,5.67
2019-02-20T23:35:08.593Z,5.89
2019-02-20T23:37:39.610Z,5.93
2019-02-20T23:40:10.942Z,5.83
2019-02-20T23:42:42.022Z,5.76
2019-02-20T23:45:13.258Z,5.52
2019-02-20T23:47:44.365Z,5.40
2019-02-20T23:50:15.519Z,5.54
2019-02-20T23:52:46.603Z,5.44
2019-02-20T23:55:17.777Z,5.61
2019-02-20T23:57:48.931Z,5.49
